sensor_id;sensor_type;location;lat;lon;timestamp;temperature;humidity
59505;DHT22;45321;53.200;5.814;2023-04-15T00:01:23;11.10;63.70
59505;DHT22;45321;53.200;5.814;2023-04-15T00:03:51;11.10;63.80
59505;DHT22;45321;53.200;5.814;2023-04-15T00:06:18;11.00;63.80
59505;DHT22;45321;53.200;5.814;2023-04-15T00:08:44;11.00;64.20
59505;DHT22;45321;53.200;5.814;2023-04-15T00:11:10;11.00;64.10
59505;DHT22;45321;53.200;5.814;2023-04-15T00:13:37;11.00;64.20
59505;DHT22;45321;53.200;5.814;2023-04-15T00:16:05;10.90;64.20
59505;DHT22;45321;53.200;5.814;2023-04-15T00:18:31;10.80;64.40
59505;DHT22;45321;53.200;5.814;2023-04-15T00:20:57;10.80;64.80
59505;DHT22;45321;53.200;5.814;2023-04-15T00:23:23;10.80;64.70
59505;DHT22;45321;53.200;5.814;2023-04-15T00:25:49;10.70;64.80
59505;DHT22;45321;53.200;5.814;2023-04-15T00:28:15;10.70;65.20
59505;DHT22;45321;53.200;5.814;2023-04-15T00:30:42;10.60;65.10
59505;DHT22;45321;53.200;5.814;2023-04-15T00:33:08;10.60;65.50
59505;DHT22;45321;53.200;5.814;2023-04-15T00:35:34;10.60;65.40
59505;DHT22;45321;53.200;5.814;2023-04-15T00:38:03;10.60;65.40
59505;DHT22;45321;53.200;5.814;2023-04-15T00:40:29;10.50;65.60
59505;DHT22;45321;53.200;5.814;2023-04-15T00:42:55;10.50;65.80
59505;DHT22;45321;53.200;5.814;2023-04-15T00:45:21;10.50;66.00
59505;DHT22;45321;53.200;5.814;2023-04-15T00:47:47;10.50;66.00
59505;DHT22;45321;53.200;5.814;2023-04-15T00:50:13;10.40;66.30
59505;DHT22;45321;53.200;5.814;2023-04-15T00:52:39;10.40;66.40
59505;DHT22;45321;53.200;5.814;2023-04-15T00:55:06;10.30;66.20
59505;DHT22;45321;53.200;5.814;2023-04-15T00:57:32;10.30;66.50
59505;DHT22;45321;53.200;5.814;2023-04-15T00:59:59;10.30;66.90
59505;DHT22;45321;53.200;5.814;2023-04-15T01:02:25;10.30;67.10
59505;DHT22;45321;53.200;5.814;2023-04-15T01:04:51;10.20;66.80
59505;DHT22;45321;53.200;5.814;2023-04-15T01:07:17;10.20;67.00
59505;DHT22;45321;53.200;5.814;2023-04-15T01:09:43;10.10;67.20
59505;DHT22;45321;53.200;5.814;2023-04-15T01:12:11;10.10;67.40
59505;DHT22;45321;53.200;5.814;2023-04-15T01:14:38;10.10;67.60
59505;DHT22;45321;53.200;5.814;2023-04-15T01:17:04;10.10;67.50
59505;DHT22;45321;53.200;5.814;2023-04-15T01:19:30;10.00;68.00
59505;DHT22;45321;53.200;5.814;2023-04-15T01:21:56;10.00;67.90
59505;DHT22;45321;53.200;5.814;2023-04-15T01:24:23;10.00;68.40
59505;DHT22;45321;53.200;5.814;2023-04-15T01:26:50;9.90;68.40
59505;DHT22;45321;53.200;5.814;2023-04-15T01:29:16;9.90;68.50
59505;DHT22;45321;53.200;5.814;2023-04-15T01:31:53;9.90;68.70
59505;DHT22;45321;53.200;5.814;2023-04-15T01:34:20;9.90;68.50
59505;DHT22;45321;53.200;5.814;2023-04-15T01:36:47;9.80;68.60
59505;DHT22;45321;53.200;5.814;2023-04-15T01:39:13;9.80;69.00
59505;DHT22;45321;53.200;5.814;2023-04-15T01:41:39;9.80;69.30
59505;DHT22;45321;53.200;5.814;2023-04-15T01:44:07;9.80;69.00
59505;DHT22;45321;53.200;5.814;2023-04-15T01:46:33;9.70;68.90
59505;DHT22;45321;53.200;5.814;2023-04-15T01:48:59;9.70;69.40
59505;DHT22;45321;53.200;5.814;2023-04-15T01:51:25;9.70;69.80
59505;DHT22;45321;53.200;5.814;2023-04-15T01:53:51;9.60;69.70
59505;DHT22;45321;53.200;5.814;2023-04-15T01:56:17;9.60;70.30
59505;DHT22;45321;53.200;5.814;2023-04-15T01:58:43;9.60;70.30
59505;DHT22;45321;53.200;5.814;2023-04-15T02:01:09;9.50;70.40
59505;DHT22;45321;53.200;5.814;2023-04-15T02:03:36;9.50;70.30
59505;DHT22;45321;53.200;5.814;2023-04-15T02:06:02;9.50;70.20
59505;DHT22;45321;53.200;5.814;2023-04-15T02:08:29;9.50;70.80
59505;DHT22;45321;53.200;5.814;2023-04-15T02:10:55;9.40;70.70
59505;DHT22;45321;53.200;5.814;2023-04-15T02:13:20;9.40;70.90
59505;DHT22;45321;53.200;5.814;2023-04-15T02:15:47;9.40;71.20
59505;DHT22;45321;53.200;5.814;2023-04-15T02:18:17;9.40;71.10
59505;DHT22;45321;53.200;5.814;2023-04-15T02:20:43;9.40;70.90
59505;DHT22;45321;53.200;5.814;2023-04-15T02:23:08;9.40;71.20
59505;DHT22;45321;53.200;5.814;2023-04-15T02:25:36;9.40;71.30
59505;DHT22;45321;53.200;5.814;2023-04-15T02:28:03;9.40;71.20
59505;DHT22;45321;53.200;5.814;2023-04-15T02:30:29;9.40;71.40
59505;DHT22;45321;53.200;5.814;2023-04-15T02:32:54;9.40;71.30
59505;DHT22;45321;53.200;5.814;2023-04-15T02:35:20;9.40;71.20
59505;DHT22;45321;53.200;5.814;2023-04-15T02:37:46;9.40;71.10
59505;DHT22;45321;53.200;5.814;2023-04-15T02:40:12;9.30;71.40
59505;DHT22;45321;53.200;5.814;2023-04-15T02:42:38;9.40;71.70
59505;DHT22;45321;53.200;5.814;2023-04-15T02:45:05;9.30;71.60
59505;DHT22;45321;53.200;5.814;2023-04-15T02:47:33;9.30;71.70
59505;DHT22;45321;53.200;5.814;2023-04-15T02:49:59;9.30;71.80
59505;DHT22;45321;53.200;5.814;2023-04-15T02:52:26;9.30;71.70
59505;DHT22;45321;53.200;5.814;2023-04-15T02:54:52;9.30;72.00
59505;DHT22;45321;53.200;5.814;2023-04-15T02:57:22;9.20;71.90
59505;DHT22;45321;53.200;5.814;2023-04-15T02:59:47;9.20;72.10
59505;DHT22;45321;53.200;5.814;2023-04-15T03:02:13;9.20;72.40
59505;DHT22;45321;53.200;5.814;2023-04-15T03:04:39;9.20;72.10
59505;DHT22;45321;53.200;5.814;2023-04-15T03:07:05;9.10;72.30
59505;DHT22;45321;53.200;5.814;2023-04-15T03:09:30;9.10;72.00
59505;DHT22;45321;53.200;5.814;2023-04-15T03:11:56;9.00;72.10
59505;DHT22;45321;53.200;5.814;2023-04-15T03:14:22;9.10;72.40
59505;DHT22;45321;53.200;5.814;2023-04-15T03:16:48;9.00;72.40
59505;DHT22;45321;53.200;5.814;2023-04-15T03:19:15;9.00;72.40
59505;DHT22;45321;53.200;5.814;2023-04-15T03:21:41;9.00;72.50
59505;DHT22;45321;53.200;5.814;2023-04-15T03:24:06;9.00;72.70
59505;DHT22;45321;53.200;5.814;2023-04-15T03:26:32;9.00;72.70
59505;DHT22;45321;53.200;5.814;2023-04-15T03:28:58;8.90;72.70
59505;DHT22;45321;53.200;5.814;2023-04-15T03:31:24;8.90;72.70
59505;DHT22;45321;53.200;5.814;2023-04-15T03:33:49;8.90;72.90
59505;DHT22;45321;53.200;5.814;2023-04-15T03:36:15;8.90;73.10
59505;DHT22;45321;53.200;5.814;2023-04-15T03:38:41;8.80;72.90
59505;DHT22;45321;53.200;5.814;2023-04-15T03:41:07;8.80;73.10
59505;DHT22;45321;53.200;5.814;2023-04-15T03:43:34;8.80;72.90
59505;DHT22;45321;53.200;5.814;2023-04-15T03:46:00;8.80;73.10
59505;DHT22;45321;53.200;5.814;2023-04-15T03:48:27;8.80;73.00
59505;DHT22;45321;53.200;5.814;2023-04-15T03:50:53;8.80;73.30
59505;DHT22;45321;53.200;5.814;2023-04-15T03:53:20;8.70;73.50
59505;DHT22;45321;53.200;5.814;2023-04-15T03:55:46;8.70;73.30
59505;DHT22;45321;53.200;5.814;2023-04-15T03:58:12;8.60;73.60
59505;DHT22;45321;53.200;5.814;2023-04-15T04:00:39;8.60;73.50
59505;DHT22;45321;53.200;5.814;2023-04-15T04:03:05;8.60;73.60
59505;DHT22;45321;53.200;5.814;2023-04-15T04:05:31;8.60;73.70
59505;DHT22;45321;53.200;5.814;2023-04-15T04:07:57;8.50;73.70
59505;DHT22;45321;53.200;5.814;2023-04-15T04:10:23;8.50;73.60
59505;DHT22;45321;53.200;5.814;2023-04-15T04:12:48;8.50;73.80
59505;DHT22;45321;53.200;5.814;2023-04-15T04:15:14;8.50;73.70
59505;DHT22;45321;53.200;5.814;2023-04-15T04:17:40;8.40;73.80
59505;DHT22;45321;53.200;5.814;2023-04-15T04:20:07;8.40;74.20
59505;DHT22;45321;53.200;5.814;2023-04-15T04:22:40;8.30;74.40
59505;DHT22;45321;53.200;5.814;2023-04-15T04:25:06;8.40;74.40
59505;DHT22;45321;53.200;5.814;2023-04-15T04:27:33;8.30;74.20
59505;DHT22;45321;53.200;5.814;2023-04-15T04:29:59;8.40;74.30
59505;DHT22;45321;53.200;5.814;2023-04-15T04:32:25;8.30;74.20
59505;DHT22;45321;53.200;5.814;2023-04-15T04:34:51;8.30;74.30
59505;DHT22;45321;53.200;5.814;2023-04-15T04:37:16;8.40;74.30
59505;DHT22;45321;53.200;5.814;2023-04-15T04:39:42;8.30;74.50
59505;DHT22;45321;53.200;5.814;2023-04-15T04:42:08;8.30;74.20
59505;DHT22;45321;53.200;5.814;2023-04-15T04:44:34;8.30;74.10
59505;DHT22;45321;53.200;5.814;2023-04-15T04:46:59;8.30;74.90
59505;DHT22;45321;53.200;5.814;2023-04-15T04:49:25;8.30;74.30
59505;DHT22;45321;53.200;5.814;2023-04-15T04:51:51;8.30;74.40
59505;DHT22;45321;53.200;5.814;2023-04-15T04:54:17;8.30;74.50
59505;DHT22;45321;53.200;5.814;2023-04-15T04:56:45;8.30;74.60
59505;DHT22;45321;53.200;5.814;2023-04-15T04:59:11;8.30;74.30
59505;DHT22;45321;53.200;5.814;2023-04-15T05:01:37;8.30;74.70
59505;DHT22;45321;53.200;5.814;2023-04-15T05:04:03;8.30;74.70
59505;DHT22;45321;53.200;5.814;2023-04-15T05:06:29;8.30;75.00
59505;DHT22;45321;53.200;5.814;2023-04-15T05:08:55;8.30;75.00
59505;DHT22;45321;53.200;5.814;2023-04-15T05:11:21;8.30;74.90
59505;DHT22;45321;53.200;5.814;2023-04-15T05:13:47;8.30;74.80
59505;DHT22;45321;53.200;5.814;2023-04-15T05:16:12;8.30;74.80
59505;DHT22;45321;53.200;5.814;2023-04-15T05:18:38;8.30;75.10
59505;DHT22;45321;53.200;5.814;2023-04-15T05:21:04;8.30;74.80
59505;DHT22;45321;53.200;5.814;2023-04-15T05:23:30;8.30;74.80
59505;DHT22;45321;53.200;5.814;2023-04-15T05:25:56;8.30;75.20
59505;DHT22;45321;53.200;5.814;2023-04-15T05:28:22;8.30;75.50
59505;DHT22;45321;53.200;5.814;2023-04-15T05:30:47;8.30;75.40
59505;DHT22;45321;53.200;5.814;2023-04-15T05:33:13;8.30;75.30
59505;DHT22;45321;53.200;5.814;2023-04-15T05:35:39;8.30;75.50
59505;DHT22;45321;53.200;5.814;2023-04-15T05:38:05;8.30;75.50
59505;DHT22;45321;53.200;5.814;2023-04-15T05:40:30;8.30;75.70
59505;DHT22;45321;53.200;5.814;2023-04-15T05:42:56;8.30;75.80
59505;DHT22;45321;53.200;5.814;2023-04-15T05:45:22;8.30;75.70
59505;DHT22;45321;53.200;5.814;2023-04-15T05:47:47;8.30;75.60
59505;DHT22;45321;53.200;5.814;2023-04-15T05:50:15;8.30;75.90
59505;DHT22;45321;53.200;5.814;2023-04-15T05:52:41;8.30;76.10
59505;DHT22;45321;53.200;5.814;2023-04-15T05:55:08;8.30;75.90
59505;DHT22;45321;53.200;5.814;2023-04-15T05:57:34;8.40;76.00
59505;DHT22;45321;53.200;5.814;2023-04-15T06:00:00;8.40;76.20
59505;DHT22;45321;53.200;5.814;2023-04-15T06:02:25;8.50;76.10
59505;DHT22;45321;53.200;5.814;2023-04-15T06:04:52;8.50;76.20
59505;DHT22;45321;53.200;5.814;2023-04-15T06:07:18;8.60;76.20
59505;DHT22;45321;53.200;5.814;2023-04-15T06:09:44;8.60;76.20
59505;DHT22;45321;53.200;5.814;2023-04-15T06:12:09;8.70;76.00
59505;DHT22;45321;53.200;5.814;2023-04-15T06:14:37;8.80;76.70
59505;DHT22;45321;53.200;5.814;2023-04-15T06:17:03;8.80;76.60
59505;DHT22;45321;53.200;5.814;2023-04-15T06:19:29;8.90;77.00
59505;DHT22;45321;53.200;5.814;2023-04-15T06:21:55;9.00;76.70
59505;DHT22;45321;53.200;5.814;2023-04-15T06:24:21;9.10;76.70
59505;DHT22;45321;53.200;5.814;2023-04-15T06:26:46;9.20;77.30
59505;DHT22;45321;53.200;5.814;2023-04-15T06:29:12;9.30;77.00
59505;DHT22;45321;53.200;5.814;2023-04-15T06:31:38;9.40;77.60
59505;DHT22;45321;53.200;5.814;2023-04-15T06:34:04;9.50;77.70
59505;DHT22;45321;53.200;5.814;2023-04-15T06:36:30;9.60;77.60
59505;DHT22;45321;53.200;5.814;2023-04-15T06:38:56;9.70;77.60
59505;DHT22;45321;53.200;5.814;2023-04-15T06:41:22;9.80;77.50
59505;DHT22;45321;53.200;5.814;2023-04-15T06:43:48;9.90;77.20
59505;DHT22;45321;53.200;5.814;2023-04-15T06:46:14;9.90;77.20
59505;DHT22;45321;53.200;5.814;2023-04-15T06:48:39;10.00;77.60
59505;DHT22;45321;53.200;5.814;2023-04-15T06:51:05;10.10;77.30
59505;DHT22;45321;53.200;5.814;2023-04-15T06:53:31;10.20;77.50
59505;DHT22;45321;53.200;5.814;2023-04-15T06:55:57;10.30;77.40
59505;DHT22;45321;53.200;5.814;2023-04-15T06:58:23;10.40;77.00
59505;DHT22;45321;53.200;5.814;2023-04-15T07:00:48;10.50;77.20
59505;DHT22;45321;53.200;5.814;2023-04-15T07:03:14;10.50;77.00
59505;DHT22;45321;53.200;5.814;2023-04-15T07:05:40;10.60;77.10
59505;DHT22;45321;53.200;5.814;2023-04-15T07:08:06;10.60;77.30
59505;DHT22;45321;53.200;5.814;2023-04-15T07:10:33;10.70;76.90
59505;DHT22;45321;53.200;5.814;2023-04-15T07:12:59;10.70;77.00
59505;DHT22;45321;53.200;5.814;2023-04-15T07:15:25;10.80;76.80
59505;DHT22;45321;53.200;5.814;2023-04-15T07:17:51;10.80;75.80
59505;DHT22;45321;53.200;5.814;2023-04-15T07:20:17;10.90;75.80
59505;DHT22;45321;53.200;5.814;2023-04-15T07:22:42;11.00;75.90
59505;DHT22;45321;53.200;5.814;2023-04-15T07:25:08;11.00;75.60
59505;DHT22;45321;53.200;5.814;2023-04-15T07:27:34;11.10;75.00
59505;DHT22;45321;53.200;5.814;2023-04-15T07:30:01;11.20;75.10
59505;DHT22;45321;53.200;5.814;2023-04-15T07:32:26;11.30;75.10
59505;DHT22;45321;53.200;5.814;2023-04-15T07:34:52;11.30;74.40
59505;DHT22;45321;53.200;5.814;2023-04-15T07:37:18;11.50;74.10
59505;DHT22;45321;53.200;5.814;2023-04-15T07:39:44;11.70;73.70
59505;DHT22;45321;53.200;5.814;2023-04-15T07:42:10;11.80;72.70
59505;DHT22;45321;53.200;5.814;2023-04-15T07:44:35;11.90;72.70
59505;DHT22;45321;53.200;5.814;2023-04-15T07:47:02;12.10;72.10
59505;DHT22;45321;53.200;5.814;2023-04-15T07:49:28;12.20;70.90
59505;DHT22;45321;53.200;5.814;2023-04-15T07:51:54;12.30;70.10
59505;DHT22;45321;53.200;5.814;2023-04-15T07:54:22;12.30;69.90
59505;DHT22;45321;53.200;5.814;2023-04-15T07:56:47;12.30;69.70
59505;DHT22;45321;53.200;5.814;2023-04-15T07:59:15;12.40;69.60
59505;DHT22;45321;53.200;5.814;2023-04-15T08:01:42;12.40;69.30
59505;DHT22;45321;53.200;5.814;2023-04-15T08:04:08;12.40;69.00
59505;DHT22;45321;53.200;5.814;2023-04-15T08:06:34;12.40;68.80
59505;DHT22;45321;53.200;5.814;2023-04-15T08:09:01;12.40;68.70
59505;DHT22;45321;53.200;5.814;2023-04-15T08:11:27;12.40;68.10
59505;DHT22;45321;53.200;5.814;2023-04-15T08:13:52;12.30;68.00
59505;DHT22;45321;53.200;5.814;2023-04-15T08:16:23;12.30;68.10
59505;DHT22;45321;53.200;5.814;2023-04-15T08:18:51;12.30;68.30
59505;DHT22;45321;53.200;5.814;2023-04-15T08:21:18;12.30;67.90
59505;DHT22;45321;53.200;5.814;2023-04-15T08:23:45;12.30;67.80
59505;DHT22;45321;53.200;5.814;2023-04-15T08:26:11;12.30;68.00
59505;DHT22;45321;53.200;5.814;2023-04-15T08:28:39;12.20;68.20
59505;DHT22;45321;53.200;5.814;2023-04-15T08:31:05;12.30;68.40
59505;DHT22;45321;53.200;5.814;2023-04-15T08:33:31;12.30;68.10
59505;DHT22;45321;53.200;5.814;2023-04-15T08:35:56;12.30;67.90
59505;DHT22;45321;53.200;5.814;2023-04-15T08:38:23;12.30;68.10
59505;DHT22;45321;53.200;5.814;2023-04-15T08:40:49;12.40;67.60
59505;DHT22;45321;53.200;5.814;2023-04-15T08:43:23;12.50;67.40
59505;DHT22;45321;53.200;5.814;2023-04-15T08:45:53;12.50;67.50
59505;DHT22;45321;53.200;5.814;2023-04-15T08:48:20;12.60;67.40
59505;DHT22;45321;53.200;5.814;2023-04-15T08:50:46;12.60;67.40
59505;DHT22;45321;53.200;5.814;2023-04-15T08:53:12;12.50;67.80
59505;DHT22;45321;53.200;5.814;2023-04-15T08:55:42;12.50;67.70
59505;DHT22;45321;53.200;5.814;2023-04-15T08:58:12;12.40;67.50
59505;DHT22;45321;53.200;5.814;2023-04-15T09:00:39;12.30;67.50
59505;DHT22;45321;53.200;5.814;2023-04-15T09:03:05;12.30;67.70
59505;DHT22;45321;53.200;5.814;2023-04-15T09:05:32;12.30;67.80
59505;DHT22;45321;53.200;5.814;2023-04-15T09:07:58;12.30;67.70
59505;DHT22;45321;53.200;5.814;2023-04-15T09:10:24;12.30;67.40
59505;DHT22;45321;53.200;5.814;2023-04-15T09:12:50;12.30;67.40
59505;DHT22;45321;53.200;5.814;2023-04-15T09:15:16;12.30;67.50
59505;DHT22;45321;53.200;5.814;2023-04-15T09:17:43;12.30;67.40
59505;DHT22;45321;53.200;5.814;2023-04-15T09:20:11;12.20;67.00
59505;DHT22;45321;53.200;5.814;2023-04-15T09:22:42;12.30;67.00
59505;DHT22;45321;53.200;5.814;2023-04-15T09:27:54;12.40;66.50
59505;DHT22;45321;53.200;5.814;2023-04-15T09:30:21;12.50;65.90
59505;DHT22;45321;53.200;5.814;2023-04-15T09:35:17;12.90;65.40
59505;DHT22;45321;53.200;5.814;2023-04-15T09:37:43;13.10;65.10
59505;DHT22;45321;53.200;5.814;2023-04-15T09:40:09;13.20;63.30
59505;DHT22;45321;53.200;5.814;2023-04-15T09:42:35;13.30;63.40
59505;DHT22;45321;53.200;5.814;2023-04-15T09:45:11;13.30;63.00
59505;DHT22;45321;53.200;5.814;2023-04-15T09:47:37;13.40;63.40
59505;DHT22;45321;53.200;5.814;2023-04-15T09:50:02;13.40;63.40
59505;DHT22;45321;53.200;5.814;2023-04-15T09:52:29;13.50;63.20
59505;DHT22;45321;53.200;5.814;2023-04-15T09:54:57;13.50;63.10
59505;DHT22;45321;53.200;5.814;2023-04-15T09:57:23;13.60;63.00
59505;DHT22;45321;53.200;5.814;2023-04-15T09:59:49;13.60;63.00
59505;DHT22;45321;53.200;5.814;2023-04-15T10:02:17;13.70;63.00
59505;DHT22;45321;53.200;5.814;2023-04-15T10:04:47;13.80;62.60
59505;DHT22;45321;53.200;5.814;2023-04-15T10:07:14;14.00;62.50
59505;DHT22;45321;53.200;5.814;2023-04-15T10:09:40;14.10;61.50
59505;DHT22;45321;53.200;5.814;2023-04-15T10:12:06;14.10;60.70
59505;DHT22;45321;53.200;5.814;2023-04-15T10:14:34;14.00;60.40
59505;DHT22;45321;53.200;5.814;2023-04-15T10:17:01;14.10;61.30
59505;DHT22;45321;53.200;5.814;2023-04-15T10:19:30;14.20;61.20
59505;DHT22;45321;53.200;5.814;2023-04-15T10:21:58;14.30;60.40
59505;DHT22;45321;53.200;5.814;2023-04-15T10:24:24;14.40;59.80
59505;DHT22;45321;53.200;5.814;2023-04-15T10:26:51;14.30;60.00
59505;DHT22;45321;53.200;5.814;2023-04-15T10:29:17;14.30;59.80
59505;DHT22;45321;53.200;5.814;2023-04-15T10:31:43;14.30;60.10
59505;DHT22;45321;53.200;5.814;2023-04-15T10:34:10;14.40;59.60
59505;DHT22;45321;53.200;5.814;2023-04-15T10:36:37;14.40;59.80
59505;DHT22;45321;53.200;5.814;2023-04-15T10:42:17;14.20;59.90
59505;DHT22;45321;53.200;5.814;2023-04-15T10:44:56;14.20;60.80
59505;DHT22;45321;53.200;5.814;2023-04-15T10:47:21;14.10;60.20
59505;DHT22;45321;53.200;5.814;2023-04-15T10:49:58;14.00;60.60
59505;DHT22;45321;53.200;5.814;2023-04-15T10:52:26;14.00;60.50
59505;DHT22;45321;53.200;5.814;2023-04-15T10:55:17;14.00;60.50
59505;DHT22;45321;53.200;5.814;2023-04-15T10:57:44;14.10;61.00
59505;DHT22;45321;53.200;5.814;2023-04-15T11:00:17;14.30;60.60
59505;DHT22;45321;53.200;5.814;2023-04-15T11:02:54;14.30;59.10
59505;DHT22;45321;53.200;5.814;2023-04-15T11:07:57;14.30;59.30
59505;DHT22;45321;53.200;5.814;2023-04-15T11:13:19;14.20;60.10
59505;DHT22;45321;53.200;5.814;2023-04-15T11:15:47;13.90;60.80
59505;DHT22;45321;53.200;5.814;2023-04-15T11:18:21;13.80;61.20
59505;DHT22;45321;53.200;5.814;2023-04-15T11:20:49;13.70;61.80
59505;DHT22;45321;53.200;5.814;2023-04-15T11:23:18;13.50;61.90
59505;DHT22;45321;53.200;5.814;2023-04-15T11:25:44;13.50;62.40
59505;DHT22;45321;53.200;5.814;2023-04-15T11:28:11;13.50;62.70
59505;DHT22;45321;53.200;5.814;2023-04-15T11:30:38;13.60;62.10
59505;DHT22;45321;53.200;5.814;2023-04-15T11:33:05;13.50;61.40
59505;DHT22;45321;53.200;5.814;2023-04-15T11:35:32;13.30;62.00
59505;DHT22;45321;53.200;5.814;2023-04-15T11:37:57;13.30;62.20
59505;DHT22;45321;53.200;5.814;2023-04-15T11:40:28;13.20;62.60
59505;DHT22;45321;53.200;5.814;2023-04-15T11:43:07;13.20;62.80
59505;DHT22;45321;53.200;5.814;2023-04-15T11:45:34;13.10;62.10
59505;DHT22;45321;53.200;5.814;2023-04-15T11:48:08;13.20;61.70
59505;DHT22;45321;53.200;5.814;2023-04-15T11:50:35;13.20;61.80
59505;DHT22;45321;53.200;5.814;2023-04-15T11:53:03;13.10;62.10
59505;DHT22;45321;53.200;5.814;2023-04-15T11:55:30;13.10;62.50
59505;DHT22;45321;53.200;5.814;2023-04-15T12:00:53;13.30;62.40
59505;DHT22;45321;53.200;5.814;2023-04-15T12:03:30;13.30;62.20
59505;DHT22;45321;53.200;5.814;2023-04-15T12:14:03;13.30;62.30
59505;DHT22;45321;53.200;5.814;2023-04-15T12:16:30;13.20;63.20
59505;DHT22;45321;53.200;5.814;2023-04-15T12:18:57;13.10;63.50
59505;DHT22;45321;53.200;5.814;2023-04-15T12:21:32;13.00;63.50
59505;DHT22;45321;53.200;5.814;2023-04-15T12:24:02;13.00;63.40
59505;DHT22;45321;53.200;5.814;2023-04-15T12:26:35;12.90;63.30
59505;DHT22;45321;53.200;5.814;2023-04-15T12:29:08;12.90;63.30
59505;DHT22;45321;53.200;5.814;2023-04-15T12:31:35;12.80;63.10
59505;DHT22;45321;53.200;5.814;2023-04-15T12:34:06;12.80;63.40
59505;DHT22;45321;53.200;5.814;2023-04-15T12:36:33;12.80;63.80
59505;DHT22;45321;53.200;5.814;2023-04-15T12:39:03;12.80;64.10
59505;DHT22;45321;53.200;5.814;2023-04-15T12:41:29;12.60;64.40
59505;DHT22;45321;53.200;5.814;2023-04-15T12:43:55;12.60;64.50
59505;DHT22;45321;53.200;5.814;2023-04-15T12:46:22;12.50;64.90
59505;DHT22;45321;53.200;5.814;2023-04-15T12:48:48;12.60;65.00
59505;DHT22;45321;53.200;5.814;2023-04-15T12:51:14;12.60;65.20
59505;DHT22;45321;53.200;5.814;2023-04-15T12:53:40;12.60;65.10
59505;DHT22;45321;53.200;5.814;2023-04-15T12:56:06;12.50;65.40
59505;DHT22;45321;53.200;5.814;2023-04-15T12:58:32;12.50;65.60
59505;DHT22;45321;53.200;5.814;2023-04-15T13:00:58;12.40;66.30
59505;DHT22;45321;53.200;5.814;2023-04-15T13:03:24;12.30;66.30
59505;DHT22;45321;53.200;5.814;2023-04-15T13:05:49;12.30;66.40
59505;DHT22;45321;53.200;5.814;2023-04-15T13:08:16;12.30;65.90
59505;DHT22;45321;53.200;5.814;2023-04-15T13:10:41;12.30;66.20
59505;DHT22;45321;53.200;5.814;2023-04-15T13:13:07;12.30;66.50
59505;DHT22;45321;53.200;5.814;2023-04-15T13:15:33;12.20;66.90
59505;DHT22;45321;53.200;5.814;2023-04-15T13:17:59;12.20;67.00
59505;DHT22;45321;53.200;5.814;2023-04-15T13:20:25;12.20;67.30
59505;DHT22;45321;53.200;5.814;2023-04-15T13:22:52;12.20;66.90
59505;DHT22;45321;53.200;5.814;2023-04-15T13:25:18;12.20;66.20
59505;DHT22;45321;53.200;5.814;2023-04-15T13:27:44;12.20;66.20
59505;DHT22;45321;53.200;5.814;2023-04-15T13:30:10;12.10;66.10
59505;DHT22;45321;53.200;5.814;2023-04-15T13:32:36;12.10;66.00
59505;DHT22;45321;53.200;5.814;2023-04-15T13:35:02;12.00;66.30
59505;DHT22;45321;53.200;5.814;2023-04-15T13:37:29;12.00;67.00
59505;DHT22;45321;53.200;5.814;2023-04-15T13:39:55;12.10;66.70
59505;DHT22;45321;53.200;5.814;2023-04-15T13:42:22;12.10;66.50
59505;DHT22;45321;53.200;5.814;2023-04-15T13:44:49;12.10;66.90
59505;DHT22;45321;53.200;5.814;2023-04-15T13:47:17;12.10;66.10
59505;DHT22;45321;53.200;5.814;2023-04-15T13:49:43;12.20;65.70
59505;DHT22;45321;53.200;5.814;2023-04-15T13:52:10;12.10;65.60
59505;DHT22;45321;53.200;5.814;2023-04-15T13:54:36;12.20;65.90
59505;DHT22;45321;53.200;5.814;2023-04-15T13:57:02;12.20;66.00
59505;DHT22;45321;53.200;5.814;2023-04-15T13:59:28;12.20;66.30
59505;DHT22;45321;53.200;5.814;2023-04-15T14:01:53;12.20;66.20
59505;DHT22;45321;53.200;5.814;2023-04-15T14:04:19;12.20;66.20
59505;DHT22;45321;53.200;5.814;2023-04-15T14:06:45;12.20;66.50
59505;DHT22;45321;53.200;5.814;2023-04-15T14:09:11;12.20;66.50
59505;DHT22;45321;53.200;5.814;2023-04-15T14:11:39;12.20;66.50
59505;DHT22;45321;53.200;5.814;2023-04-15T14:14:05;12.20;66.70
59505;DHT22;45321;53.200;5.814;2023-04-15T14:16:34;12.20;66.50
59505;DHT22;45321;53.200;5.814;2023-04-15T14:19:01;12.20;66.70
59505;DHT22;45321;53.200;5.814;2023-04-15T14:21:27;12.20;66.80
59505;DHT22;45321;53.200;5.814;2023-04-15T14:23:54;12.20;67.00
59505;DHT22;45321;53.200;5.814;2023-04-15T14:26:20;12.20;67.10
59505;DHT22;45321;53.200;5.814;2023-04-15T14:28:46;12.20;67.00
59505;DHT22;45321;53.200;5.814;2023-04-15T14:31:12;12.30;67.10
59505;DHT22;45321;53.200;5.814;2023-04-15T14:33:38;12.30;66.40
59505;DHT22;45321;53.200;5.814;2023-04-15T14:36:06;12.30;66.40
59505;DHT22;45321;53.200;5.814;2023-04-15T14:38:34;12.30;66.50
59505;DHT22;45321;53.200;5.814;2023-04-15T14:41:05;12.30;66.50
59505;DHT22;45321;53.200;5.814;2023-04-15T14:43:31;12.40;66.70
59505;DHT22;45321;53.200;5.814;2023-04-15T14:45:57;12.30;66.30
59505;DHT22;45321;53.200;5.814;2023-04-15T14:48:23;12.30;65.90
59505;DHT22;45321;53.200;5.814;2023-04-15T14:50:49;12.30;66.40
59505;DHT22;45321;53.200;5.814;2023-04-15T14:53:15;12.20;66.10
59505;DHT22;45321;53.200;5.814;2023-04-15T14:55:40;12.30;66.30
59505;DHT22;45321;53.200;5.814;2023-04-15T14:58:06;12.30;66.60
59505;DHT22;45321;53.200;5.814;2023-04-15T15:00:35;12.20;66.50
59505;DHT22;45321;53.200;5.814;2023-04-15T15:03:03;12.20;66.40
59505;DHT22;45321;53.200;5.814;2023-04-15T15:05:37;12.20;66.70
59505;DHT22;45321;53.200;5.814;2023-04-15T15:08:04;12.30;66.70
59505;DHT22;45321;53.200;5.814;2023-04-15T15:10:30;12.20;66.80
59505;DHT22;45321;53.200;5.814;2023-04-15T15:12:55;12.20;67.00
59505;DHT22;45321;53.200;5.814;2023-04-15T15:15:21;12.20;66.80
59505;DHT22;45321;53.200;5.814;2023-04-15T15:17:50;12.20;66.90
59505;DHT22;45321;53.200;5.814;2023-04-15T15:20:16;12.20;67.20
59505;DHT22;45321;53.200;5.814;2023-04-15T15:22:43;12.00;67.40
59505;DHT22;45321;53.200;5.814;2023-04-15T15:25:09;12.00;67.60
59505;DHT22;45321;53.200;5.814;2023-04-15T15:27:35;12.00;67.50
59505;DHT22;45321;53.200;5.814;2023-04-15T15:30:02;12.00;67.70
59505;DHT22;45321;53.200;5.814;2023-04-15T15:32:28;12.10;68.00
59505;DHT22;45321;53.200;5.814;2023-04-15T15:34:54;12.00;67.80
59505;DHT22;45321;53.200;5.814;2023-04-15T15:37:19;11.90;68.20
59505;DHT22;45321;53.200;5.814;2023-04-15T15:39:45;11.90;68.10
59505;DHT22;45321;53.200;5.814;2023-04-15T15:42:11;11.90;67.70
59505;DHT22;45321;53.200;5.814;2023-04-15T15:44:36;11.80;67.90
59505;DHT22;45321;53.200;5.814;2023-04-15T15:47:06;11.90;68.30
59505;DHT22;45321;53.200;5.814;2023-04-15T15:49:32;11.90;68.30
59505;DHT22;45321;53.200;5.814;2023-04-15T15:51:58;11.80;68.20
59505;DHT22;45321;53.200;5.814;2023-04-15T15:54:24;11.90;68.70
59505;DHT22;45321;53.200;5.814;2023-04-15T15:56:50;11.90;68.60